Time;durP1;ratioP1;P1;durP2;ratioP2;P2;SDS_P1;SDS_P2;PMS_P1;PMS_P2;Temp;Humidity;BMP_temperature;BMP_pressure;BME280_temperature;BME280_humidity;BME280_pressure;Samples;Min_cycle;Max_cycle;Signal;HPM_P1;HPM_P2
2022/04/27 00:00:15;;;;;;;991.75;926.30;;;;;;;13.91;43.64;101514.78;690368;28;22355;-66
2022/04/27 00:00:36;;;;;;;988.50;923.10;;;;;;;13.91;43.32;101512.06;691002;28;22403;-67
2022/04/27 00:00:58;;;;;;;983.75;918.63;;;;;;;13.92;43.45;101510.19;690524;28;45243;-67
2022/04/27 00:01:20;;;;;;;976.80;911.75;;;;;;;13.92;43.62;101515.59;689446;28;46310;-67
2022/04/27 00:01:42;;;;;;;974.88;909.95;;;;;;;13.92;43.55;101511.03;690275;28;44378;-67
2022/04/27 00:02:03;;;;;;;975.88;911.03;;;;;;;13.93;43.38;101512.72;690926;28;22383;-67
2022/04/27 00:02:25;;;;;;;991.42;925.92;;;;;;;13.94;43.40;101503.56;690067;28;46841;-67
2022/04/27 00:02:46;;;;;;;985.90;920.67;;;;;;;13.94;43.56;101503.56;690731;28;45356;-67
2022/04/27 00:03:07;;;;;;;986.72;921.38;;;;;;;13.95;43.30;101509.81;690204;28;21351;-67
2022/04/27 00:03:29;;;;;;;995.90;930.20;;;;;;;13.95;43.55;101505.25;691206;28;23484;-66
2022/04/27 00:03:52;;;;;;;998.80;932.90;;;;;;;13.94;43.80;101498.13;690758;28;29809;-67
2022/04/27 00:04:13;;;;;;;983.83;918.58;;;;;;;13.98;43.22;101514.88;689364;28;69639;-67
2022/04/27 00:04:34;;;;;;;973.33;908.53;;;;;;;13.97;43.64;101503.19;691225;28;22474;-67
2022/04/27 00:04:55;;;;;;;988.45;923.13;;;;;;;13.94;43.68;101500.00;690730;28;22382;-67
2022/04/27 00:05:17;;;;;;;993.80;928.22;;;;;;;13.93;43.68;101495.59;690833;28;22377;-67
2022/04/27 00:05:39;;;;;;;990.65;925.20;;;;;;;13.96;43.43;101500.66;690938;28;45361;-67
2022/04/27 00:06:00;;;;;;;983.80;918.50;;;;;;;13.97;43.33;101503.19;690875;28;23423;-67
2022/04/27 00:06:21;;;;;;;1002.80;936.92;;;;;;;13.98;43.36;101501.31;689196;28;46301;-67
2022/04/27 00:06:43;;;;;;;984.47;919.30;;;;;;;13.99;43.88;101503.84;690077;28;22402;-67
2022/04/27 00:07:06;;;;;;;991.28;925.90;;;;;;;13.99;43.62;101500.28;690311;28;44382;-67
2022/04/27 00:07:27;;;;;;;996.92;931.30;;;;;;;13.96;43.56;101496.06;689500;28;69444;-67
2022/04/27 00:07:48;;;;;;;986.08;920.85;;;;;;;13.98;43.66;101501.31;691064;28;21389;-66
2022/04/27 00:08:09;;;;;;;1004.72;938.80;;;;;;;13.96;43.39;101497.94;691097;28;23489;-66
2022/04/27 00:08:32;;;;;;;1000.80;934.90;;;;;;;13.98;43.75;101495.88;690357;28;45257;-67
2022/04/27 00:08:53;;;;;;;991.00;925.50;;;;;;;13.98;43.72;101496.75;690061;28;45226;-67
2022/04/27 00:09:14;;;;;;;990.20;924.78;;;;;;;13.99;43.81;101503.00;690810;28;21557;-67
2022/04/27 00:09:35;;;;;;;991.78;926.22;;;;;;;13.99;43.42;101505.72;690819;28;22482;-67
2022/04/27 00:09:57;;;;;;;1001.20;935.33;;;;;;;13.98;43.54;101495.88;691206;28;21544;-67
2022/04/27 00:10:19;;;;;;;998.83;933.13;;;;;;;13.97;43.48;101505.91;689541;28;45077;-67
2022/04/27 00:10:40;;;;;;;1002.97;937.05;;;;;;;13.99;43.81;101503.00;690321;28;46299;-67
2022/04/27 00:11:02;;;;;;;1003.97;938.13;;;;;;;13.99;43.41;101497.56;690986;28;22424;-67
2022/04/27 00:11:24;;;;;;;989.58;924.17;;;;;;;13.98;43.77;101498.59;690280;28;46368;-67
2022/04/27 00:11:45;;;;;;;984.78;919.58;;;;;;;13.98;43.75;101499.47;690438;28;46292;-67
2022/04/27 00:12:07;;;;;;;991.55;926.15;;;;;;;13.99;43.34;101501.13;691132;28;23551;-67
2022/04/27 00:12:28;;;;;;;980.72;915.67;;;;;;;13.97;43.73;101494.22;689637;28;47408;-67
2022/04/27 00:12:50;;;;;;;989.85;924.40;;;;;;;14.00;43.69;101496.56;690952;28;23275;-67
2022/04/27 00:13:13;;;;;;;990.97;925.53;;;;;;;13.99;43.72;101500.28;690128;28;45182;-67
2022/04/27 00:13:34;;;;;;;994.95;929.35;;;;;;;13.99;43.37;101501.13;689433;28;69269;-67
2022/04/27 00:13:56;;;;;;;1004.60;938.65;;;;;;;13.99;43.85;101503.00;691633;28;21503;-67
2022/04/27 00:14:18;;;;;;;999.40;933.72;;;;;;;13.98;43.45;101502.19;689717;28;46347;-67
2022/04/27 00:14:39;;;;;;;989.00;923.70;;;;;;;13.98;43.51;101502.19;690549;28;45376;-67
2022/04/27 00:15:00;;;;;;;987.20;922.00;;;;;;;13.98;43.94;101493.16;691140;28;23827;-67
2022/04/27 00:15:25;;;;;;;997.67;932.00;;;;;;;13.99;43.76;101503.00;691604;28;23426;-66
2022/04/27 00:15:47;;;;;;;987.97;922.63;;;;;;;13.98;43.37;101498.59;689373;28;92105;-67
2022/04/27 00:16:08;;;;;;;991.88;926.47;;;;;;;13.98;43.72;101499.47;690318;28;69748;-67
2022/04/27 00:16:29;;;;;;;976.97;912.08;;;;;;;13.96;43.52;101496.06;690970;28;22382;-67
2022/04/27 00:16:50;;;;;;;984.90;919.72;;;;;;;13.99;43.69;101500.28;691411;28;22395;-67
2022/04/27 00:17:12;;;;;;;988.05;922.75;;;;;;;13.98;43.41;101499.47;691049;28;21562;-67
2022/04/27 00:17:33;;;;;;;997.72;932.03;;;;;;;13.99;43.83;101503.00;690753;28;46416;-66
2022/04/27 00:17:54;;;;;;;1004.33;938.47;;;;;;;13.97;43.88;101499.66;690908;28;21539;-67
2022/04/27 00:18:16;;;;;;;989.22;924.00;;;;;;;13.98;43.84;101498.59;689687;28;46321;-67
2022/04/27 00:18:38;;;;;;;996.22;930.65;;;;;;;13.98;43.71;101498.59;690976;28;23303;-67
2022/04/27 00:18:59;;;;;;;998.78;933.00;;;;;;;13.97;43.63;101499.66;690546;28;46352;-66
2022/04/27 00:19:20;;;;;;;989.53;924.15;;;;;;;13.96;43.83;101500.66;691107;28;21539;-67
2022/04/27 00:19:41;;;;;;;994.67;929.08;;;;;;;13.97;43.82;101505.91;691223;28;22400;-67
2022/04/27 00:20:03;;;;;;;988.13;922.75;;;;;;;13.97;43.61;101505.91;691382;28;23457;-67
2022/04/27 00:20:24;;;;;;;977.70;912.80;;;;;;;13.97;43.54;101505.06;689772;28;67495;-67
2022/04/27 00:20:45;;;;;;;994.03;928.58;;;;;;;13.96;43.76;101497.94;691052;28;21550;-66
2022/04/27 00:21:07;;;;;;;986.17;920.95;;;;;;;13.96;43.84;101503.38;690660;28;22337;-67
2022/04/27 00:21:29;;;;;;;994.22;928.70;;;;;;;13.95;43.66;101505.25;690503;28;22753;-67
2022/04/27 00:21:50;;;;;;;982.15;917.15;;;;;;;13.94;43.80;101514.41;690331;28;46342;-67
2022/04/27 00:22:11;;;;;;;991.53;926.13;;;;;;;13.94;44.22;101519.00;690732;28;23422;-67
2022/04/27 00:22:33;;;;;;;977.20;912.40;;;;;;;13.93;44.20;101514.59;690407;28;43655;-67
2022/04/27 00:22:54;;;;;;;985.30;920.22;;;;;;;13.93;43.84;101514.59;690696;28;21541;-67
2022/04/27 00:23:16;;;;;;;989.97;924.75;;;;;;;13.93;43.86;101517.31;690303;28;22409;-67
2022/04/27 00:23:37;;;;;;;986.85;921.65;;;;;;;13.92;43.87;101513.75;690267;28;46716;-66
2022/04/27 00:23:58;;;;;;;977.63;912.83;;;;;;;13.92;44.14;101521.91;690771;28;23407;-67
2022/04/27 00:24:19;;;;;;;989.47;924.20;;;;;;;13.92;44.09;101526.47;690544;28;21534;-66
2022/04/27 00:24:41;;;;;;;984.80;919.60;;;;;;;13.91;44.39;101514.78;691097;28;21559;-66
2022/04/27 00:25:03;;;;;;;984.88;919.78;;;;;;;13.91;43.99;101514.78;690613;28;44369;-67
2022/04/27 00:25:24;;;;;;;981.50;916.45;;;;;;;13.92;43.85;101515.59;689309;28;69419;-67
2022/04/27 00:25:45;;;;;;;981.92;916.95;;;;;;;13.92;44.11;101515.59;690896;28;22532;-67
2022/04/27 00:26:09;;;;;;;978.25;913.40;;;;;;;13.91;43.86;101503.06;691154;28;21515;-67
2022/04/27 00:26:30;;;;;;;983.90;918.70;;;;;;;13.91;43.87;101514.78;688584;28;92459;-67
2022/04/27 00:26:52;;;;;;;983.78;918.58;;;;;;;13.91;43.90;101508.50;691567;28;21478;-66
2022/04/27 00:27:13;;;;;;;990.72;925.20;;;;;;;13.90;43.92;101513.06;690400;28;23603;-67
2022/04/27 00:27:35;;;;;;;989.30;923.90;;;;;;;13.90;44.02;101513.06;692112;28;23411;-67
2022/04/27 00:27:56;;;;;;;982.90;917.83;;;;;;;13.91;43.83;101508.50;688296;28;45464;-67
2022/04/27 00:28:17;;;;;;;970.78;906.13;;;;;;;13.90;43.75;101506.81;685755;28;44415;-67
2022/04/27 00:28:38;;;;;;;977.35;912.38;;;;;;;13.88;43.76;101513.25;687245;28;7654;-67
2022/04/27 00:29:00;;;;;;;988.50;923.20;;;;;;;13.89;43.89;101505.97;687494;28;22420;-67
2022/04/27 00:29:21;;;;;;;989.67;924.08;;;;;;;13.88;44.10;101499.69;686757;28;44394;-66
2022/04/27 00:29:42;;;;;;;1000.97;934.72;;;;;;;13.87;44.25;101508.88;687184;28;22392;-67
2022/04/27 00:30:04;;;;;;;989.55;924.15;;;;;;;13.84;44.13;101501.09;690945;28;21435;-66
2022/04/27 00:30:26;;;;;;;978.60;913.72;;;;;;;13.87;43.88;101498.00;689968;28;44375;-67
2022/04/27 00:30:47;;;;;;;984.30;919.30;;;;;;;13.87;44.17;101502.56;690496;28;46742;-67
2022/04/27 00:31:08;;;;;;;986.40;921.20;;;;;;;13.86;43.87;101507.16;691363;28;22394;-67
2022/04/27 00:31:31;;;;;;;988.38;923.13;;;;;;;13.86;44.24;101507.16;690832;28;23532;-67
2022/04/27 00:31:53;;;;;;;979.58;914.70;;;;;;;13.85;44.16;101510.91;689778;28;69027;-67
2022/04/27 00:32:14;;;;;;;981.00;915.95;;;;;;;13.83;44.31;101501.25;689346;28;46593;-67
2022/04/27 00:32:35;;;;;;;977.00;912.13;;;;;;;13.81;44.24;101506.03;691413;28;22398;-67
2022/04/27 00:32:56;;;;;;;974.47;909.75;;;;;;;13.82;44.17;101510.41;690656;28;22336;-67
2022/04/27 00:33:18;;;;;;;989.80;924.40;;;;;;;13.82;44.19;101510.41;688679;28;23476;-67
2022/04/27 00:33:49;;;;;;;1052.63;984.28;;;;;;;13.82;44.39;101508.56;686435;28;97147;-67
2022/04/27 00:34:11;;;;;;;998.28;932.47;;;;;;;13.82;44.07;101515.84;688390;28;44365;-66
2022/04/27 00:34:32;;;;;;;978.40;913.38;;;;;;;13.82;44.25;101507.72;688848;28;20810;-67
2022/04/27 00:34:53;;;;;;;969.97;905.33;;;;;;;13.81;44.42;101508.75;688284;28;22399;-67
2022/04/27 00:35:17;;;;;;;988.60;923.17;;;;;;;13.79;44.37;101510.78;687970;28;21630;-67
2022/04/27 00:35:39;;;;;;;982.15;917.00;;;;;;;13.77;44.30;101507.41;683762;28;90315;-67
2022/04/27 00:36:00;;;;;;;966.35;901.78;;;;;;;13.75;44.06;101510.31;685075;28;46314;-67
2022/04/27 00:36:21;;;;;;;976.50;911.58;;;;;;;13.73;44.43;101506.06;683911;28;46252;-67
2022/04/27 00:36:42;;;;;;;977.67;912.72;;;;;;;13.70;44.57;101510.84;685453;28;23400;-67
2022/04/27 00:37:04;;;;;;;986.05;920.83;;;;;;;13.68;44.48;101509.31;688863;28;23467;-67
2022/04/27 00:37:25;;;;;;;980.85;915.72;;;;;;;13.67;44.37;101508.47;691502;28;44365;-67
2022/04/27 00:37:47;;;;;;;985.40;920.30;;;;;;;13.67;44.39;101508.47;693237;28;21645;-67
2022/04/27 00:38:08;;;;;;;972.60;907.88;;;;;;;13.66;44.49;101506.78;693094;28;23431;-67
2022/04/27 00:38:30;;;;;;;984.35;919.22;;;;;;;13.64;44.49;101508.84;691529;28;46664;-67
2022/04/27 00:38:51;;;;;;;988.85;923.65;;;;;;;13.62;44.70;101502.75;689978;28;45039;-67
2022/04/27 00:39:12;;;;;;;985.50;920.40;;;;;;;13.62;44.65;101510.03;690723;28;23483;-66
2022/04/27 00:39:33;;;;;;;983.20;918.05;;;;;;;13.60;44.75;101504.78;691005;28;22429;-67
2022/04/27 00:39:55;;;;;;;984.00;918.70;;;;;;;13.60;44.43;101506.66;690390;28;23880;-67
2022/04/27 00:40:16;;;;;;;980.28;915.20;;;;;;;13.59;44.77;101508.53;690934;28;45225;-67
2022/04/27 00:40:37;;;;;;;989.58;924.15;;;;;;;13.59;44.55;101511.25;691620;28;21549;-67
2022/04/27 00:40:58;;;;;;;992.60;927.00;;;;;;;13.59;44.80;101510.38;691747;28;22410;-67
2022/04/27 00:41:22;;;;;;;964.22;899.80;;;;;;;13.57;44.54;101510.56;690917;28;22397;-67
2022/04/27 00:41:58;;;;;;;976.78;911.83;;;;;;;13.57;44.81;101516.00;689030;28;92145;-67
2022/04/27 00:42:21;;;;;;;984.45;919.17;;;;;;;13.56;44.88;101514.31;684942;28;137566;-66
2022/04/27 00:42:42;;;;;;;991.10;925.60;;;;;;;13.56;44.62;101517.03;686770;28;67270;-66
2022/04/27 00:43:04;;;;;;;993.65;928.08;;;;;;;13.56;44.99;101511.59;686090;28;21524;-67
2022/04/27 00:43:34;;;;;;;988.20;922.70;;;;;;;13.55;44.63;101509.91;685696;28;44248;-67
2022/04/27 00:43:56;;;;;;;998.95;933.15;;;;;;;13.56;44.67;101514.31;683407;28;136300;-67
2022/04/27 00:44:17;;;;;;;978.65;913.60;;;;;;;13.56;44.97;101517.03;686381;28;46529;-67
2022/04/27 00:44:38;;;;;;;983.95;918.72;;;;;;;13.57;44.64;101516.00;686375;28;22401;-67
2022/04/27 00:45:01;;;;;;;971.10;906.45;;;;;;;13.58;44.97;101519.56;687158;28;46647;-67
2022/04/27 00:45:23;;;;;;;985.70;920.47;;;;;;;13.57;44.65;101518.69;687662;28;68125;-67
2022/04/27 00:45:44;;;;;;;1002.55;936.60;;;;;;;13.57;44.65;101521.41;688222;28;46636;-67
2022/04/27 00:46:05;;;;;;;984.88;919.65;;;;;;;13.57;44.77;101521.41;689290;28;21515;-67
2022/04/27 00:46:26;;;;;;;985.88;920.65;;;;;;;13.59;44.95;101510.38;690635;28;22384;-67
2022/04/27 00:46:49;;;;;;;1003.17;937.35;;;;;;;13.58;44.96;101517.69;692407;28;1535;-67
2022/04/27 00:47:10;;;;;;;996.25;930.60;;;;;;;13.60;44.56;101520.22;690090;28;46364;-67
2022/04/27 00:47:31;;;;;;;984.05;918.85;;;;;;;13.58;45.04;101517.69;690893;28;21552;-66
2022/04/27 00:47:52;;;;;;;996.40;930.80;;;;;;;13.59;44.70;101518.53;690967;28;44365;-66
2022/04/27 00:48:14;;;;;;;985.15;919.90;;;;;;;13.59;44.86;101522.09;689565;28;16374;-66
2022/04/27 00:48:36;;;;;;;980.28;915.20;;;;;;;13.59;44.64;101521.25;685366;28;45288;-66
2022/04/27 00:48:58;;;;;;;984.97;919.75;;;;;;;13.59;44.98;101519.38;683897;28;69428;-66
2022/04/27 00:49:20;;;;;;;986.28;920.92;;;;;;;13.58;44.80;101520.41;685338;28;21527;-66
2022/04/27 00:49:43;;;;;;;992.78;927.08;;;;;;;13.58;44.75;101514.97;685609;28;42713;-66
2022/04/27 00:50:05;;;;;;;984.05;918.80;;;;;;;13.57;45.04;101516.00;687272;28;67463;-66
2022/04/27 00:50:26;;;;;;;986.58;921.17;;;;;;;13.57;44.83;101518.69;690298;28;45044;-66
2022/04/27 00:50:48;;;;;;;981.08;915.90;;;;;;;13.55;44.90;101522.63;690997;28;21492;-66
2022/04/27 00:51:14;;;;;;;987.80;922.50;;;;;;;13.52;45.11;101516.53;688475;28;46334;-65
2022/04/27 00:51:35;;;;;;;989.28;923.92;;;;;;;13.49;44.92;101514.19;684665;28;136439;-66
2022/04/27 00:51:56;;;;;;;979.45;914.42;;;;;;;13.50;44.74;101515.03;689359;28;21527;-66
2022/04/27 00:52:19;;;;;;;988.75;923.42;;;;;;;13.48;45.22;101517.06;685962;28;21436;-66
2022/04/27 00:52:40;;;;;;;981.63;916.50;;;;;;;13.48;44.77;101522.50;686181;28;44350;-66
2022/04/27 00:53:02;;;;;;;990.50;925.13;;;;;;;13.46;44.86;101513.69;686999;28;45265;-66
2022/04/27 00:53:23;;;;;;;995.75;930.25;;;;;;;13.45;44.85;101515.56;689754;28;22502;-66
2022/04/27 00:53:45;;;;;;;986.22;921.20;;;;;;;13.46;45.26;101519.97;686508;28;22399;-66
2022/04/27 00:54:07;;;;;;;997.00;931.50;;;;;;;13.45;44.94;101520.16;683493;28;45272;-65
2022/04/27 00:54:28;;;;;;;991.88;926.47;;;;;;;13.43;45.37;101520.31;686246;28;22394;-65
2022/04/27 00:54:51;;;;;;;979.00;913.97;;;;;;;13.43;45.37;101517.63;686113;28;44371;-66
2022/04/27 00:55:13;;;;;;;971.97;907.22;;;;;;;13.41;45.12;101514.22;682580;28;34092;-65
2022/04/27 00:55:34;;;;;;;979.67;914.65;;;;;;;13.41;45.20;101519.63;682637;28;46332;-66
2022/04/27 00:55:56;;;;;;;986.10;920.80;;;;;;;13.41;45.33;101513.38;683890;28;2779;-66
2022/04/27 00:56:18;;;;;;;976.20;911.28;;;;;;;13.38;45.21;101514.56;680931;28;45213;-66
2022/04/27 00:56:42;;;;;;;986.63;921.28;;;;;;;13.37;45.44;101522.88;677883;28;89479;-66
2022/04/27 00:57:03;;;;;;;989.58;924.22;;;;;;;13.35;45.55;101517.63;680458;28;90333;-65
2022/04/27 00:57:25;;;;;;;987.13;921.83;;;;;;;13.33;45.51;101525.94;686323;28;22884;-66
2022/04/27 00:57:47;;;;;;;986.70;921.45;;;;;;;13.32;45.25;101523.38;683851;28;46359;-66
2022/04/27 00:58:09;;;;;;;986.88;921.63;;;;;;;13.31;45.70;101519.81;683758;28;46374;-65
2022/04/27 00:58:31;;;;;;;993.30;927.72;;;;;;;13.29;45.72;101515.59;685483;28;46787;-66
2022/04/27 00:58:53;;;;;;;983.78;918.58;;;;;;;13.29;45.49;101518.28;688044;28;22369;-66
2022/04/27 00:59:14;;;;;;;988.63;923.25;;;;;;;13.28;45.57;101522.06;686805;28;67480;-65
2022/04/27 00:59:35;;;;;;;985.78;920.38;;;;;;;13.26;45.53;101519.50;685897;28;22476;-66
2022/04/27 00:59:57;;;;;;;998.75;932.92;;;;;;;13.26;45.37;101529.50;686794;28;21529;-66
2022/04/27 01:00:19;;;;;;;1007.42;941.45;;;;;;;13.26;45.65;101518.66;686899;28;46327;-66
2022/04/27 01:00:40;;;;;;;993.95;928.33;;;;;;;13.23;45.48;101519.88;684630;28;45279;-67
2022/04/27 01:01:01;;;;;;;982.40;917.28;;;;;;;13.26;45.69;101521.34;687673;28;22373;-66
2022/04/27 01:01:22;;;;;;;985.47;920.28;;;;;;;13.27;45.49;101523.91;688659;28;21595;-67
2022/04/27 01:01:44;;;;;;;974.10;909.38;;;;;;;13.27;45.60;101517.63;691335;28;44001;-66
2022/04/27 01:02:06;;;;;;;990.53;925.08;;;;;;;13.25;45.78;101516.97;690752;28;44377;-66
2022/04/27 01:02:27;;;;;;;1003.97;938.05;;;;;;;13.24;45.87;101524.25;691356;28;22336;-67
2022/04/27 01:02:48;;;;;;;1008.75;942.63;;;;;;;13.23;45.54;101525.28;688878;28;22434;-66
2022/04/27 01:03:11;;;;;;;998.72;933.03;;;;;;;13.23;45.74;101530.72;689235;28;46303;-66
2022/04/27 01:03:36;;;;;;;1002.38;936.42;;;;;;;13.20;45.53;101517.50;690454;28;46168;-66
2022/04/27 01:03:57;;;;;;;1007.17;941.10;;;;;;;13.21;45.50;101521.03;684748;28;113545;-67
2022/04/27 01:04:19;;;;;;;989.10;923.67;;;;;;;13.20;45.52;101525.63;688086;28;21568;-66
2022/04/27 01:04:41;;;;;;;991.17;925.60;;;;;;;13.18;45.85;101522.22;688490;28;45222;-66
2022/04/27 01:05:07;;;;;;;989.42;924.05;;;;;;;13.16;45.87;101530.56;689707;28;46341;-66
2022/04/27 01:05:28;;;;;;;1001.67;935.90;;;;;;;13.15;46.15;101528.03;686698;28;136436;-66
2022/04/27 01:05:51;;;;;;;997.65;932.05;;;;;;;13.13;45.74;101527.34;690413;28;23261;-66
2022/04/27 01:06:12;;;;;;;992.10;926.55;;;;;;;13.13;45.84;101530.06;687991;28;46004;-66
2022/04/27 01:06:34;;;;;;;1002.38;936.40;;;;;;;13.11;46.08;101524.81;683803;28;44370;-66
2022/04/27 01:06:55;;;;;;;990.75;925.35;;;;;;;13.13;45.89;101530.06;682234;28;46179;-67
2022/04/27 01:07:17;;;;;;;989.78;924.35;;;;;;;13.14;45.87;101523.63;679650;28;46301;-66
2022/04/27 01:07:40;;;;;;;985.67;920.38;;;;;;;13.13;46.07;101525.50;680527;29;23448;-66
2022/04/27 01:08:02;;;;;;;985.67;920.42;;;;;;;13.15;45.93;101530.75;680520;28;69444;-66
2022/04/27 01:08:23;;;;;;;995.55;929.97;;;;;;;13.14;46.06;101531.75;687332;28;1192;-66
2022/04/27 01:08:45;;;;;;;987.13;921.90;;;;;;;13.15;45.97;101528.03;684658;28;47985;-66
2022/04/27 01:09:06;;;;;;;1002.95;937.00;;;;;;;13.14;45.86;101524.47;682788;28;46189;-65
2022/04/27 01:09:29;;;;;;;1006.75;940.42;;;;;;;13.15;45.72;101526.16;685333;28;21504;-66
2022/04/27 01:09:50;;;;;;;989.38;923.67;;;;;;;13.16;46.08;101521.56;682482;28;67458;-66
2022/04/27 01:10:12;;;;;;;988.63;923.17;;;;;;;13.16;45.87;101527.88;681650;29;22390;-66
2022/04/27 01:10:36;;;;;;;989.97;924.45;;;;;;;13.17;45.71;101525.97;680933;28;115107;-66
2022/04/27 01:10:59;;;;;;;1000.60;934.58;;;;;;;13.15;46.06;101525.31;687169;28;22428;-66
2022/04/27 01:11:21;;;;;;;989.63;924.15;;;;;;;13.13;46.16;101528.22;683524;28;68750;-66
2022/04/27 01:11:49;;;;;;;1011.53;945.17;;;;;;;13.12;46.01;101533.81;681129;28;137997;-66
2022/04/27 01:12:10;;;;;;;998.83;932.95;;;;;;;13.10;45.99;101531.28;682464;28;67584;-66
2022/04/27 01:12:47;;;;;;;1039.80;972.17;;;;;;;13.08;45.98;101525.16;679611;28;137211;-65
2022/04/27 01:13:10;;;;;;;1077.95;999.90;;;;;;;13.05;46.21;101532.81;679738;28;92306;-66
2022/04/27 01:13:32;;;;;;;1085.45;999.90;;;;;;;13.04;46.27;101533.81;681997;28;23472;-66
2022/04/27 01:13:54;;;;;;;1075.38;999.90;;;;;;;13.02;46.01;101535.84;681867;28;69570;-66
2022/04/27 01:14:18;;;;;;;1079.45;999.90;;;;;;;13.01;46.39;101531.44;682245;28;69740;-66
2022/04/27 01:14:42;;;;;;;1071.57;999.90;;;;;;;12.98;46.29;101533.50;684940;28;47306;-66
2022/04/27 01:15:05;;;;;;;1075.43;999.90;;;;;;;12.98;46.08;101533.50;682163;28;113539;-66
2022/04/27 01:15:37;;;;;;;1068.53;998.83;;;;;;;12.97;46.51;101531.78;683605;28;98580;-66
2022/04/27 01:15:59;;;;;;;1082.03;999.90;;;;;;;12.98;46.38;101527.22;687394;28;44373;-66
2022/04/27 01:16:20;;;;;;;1078.05;999.90;;;;;;;12.97;46.52;101531.78;686923;28;46451;-66
2022/04/27 01:16:41;;;;;;;1078.22;999.90;;;;;;;12.97;46.51;101530.97;688448;28;23280;-66
2022/04/27 01:17:03;;;;;;;1073.20;999.90;;;;;;;12.96;46.51;101535.53;691418;28;22392;-66
2022/04/27 01:17:25;;;;;;;1072.88;999.90;;;;;;;12.96;46.29;101531.97;687902;28;44366;-66
2022/04/27 01:17:47;;;;;;;1070.72;999.88;;;;;;;12.94;46.66;101532.13;690131;28;69259;-66
2022/04/27 01:18:09;;;;;;;1058.53;989.67;;;;;;;12.94;46.36;101526.72;692216;28;21154;-66
2022/04/27 01:18:33;;;;;;;1065.20;996.10;;;;;;;12.92;46.30;101528.75;688014;28;71605;-66
2022/04/27 01:18:55;;;;;;;1062.28;993.33;;;;;;;12.93;46.57;101532.31;688993;28;40270;-66
2022/04/27 01:19:17;;;;;;;1063.95;994.80;;;;;;;12.92;46.20;101533.34;684942;28;46774;-66
2022/04/27 01:19:38;;;;;;;1059.38;990.30;;;;;;;12.92;46.26;101534.19;685058;28;46360;-66
2022/04/27 01:20:00;;;;;;;1062.50;993.42;;;;;;;12.90;46.53;101522.69;687093;28;22384;-67
2022/04/27 01:20:23;;;;;;;1063.70;994.58;;;;;;;12.90;46.69;101536.22;687805;28;69420;-67
2022/04/27 01:20:45;;;;;;;1049.15;980.58;;;;;;;12.89;46.47;101528.28;691400;28;22468;-66
2022/04/27 01:21:09;;;;;;;1062.90;993.85;;;;;;;12.89;46.62;101530.97;685166;28;115087;-66
2022/04/27 01:21:40;;;;;;;1060.25;991.35;;;;;;;12.91;46.79;101528.94;683103;28;157418;-66
2022/04/27 01:22:02;;;;;;;1054.88;986.25;;;;;;;12.90;46.51;101536.22;691392;28;46458;-66
2022/04/27 01:22:24;;;;;;;1055.43;986.80;;;;;;;12.88;46.42;101538.25;687568;28;69914;-66
2022/04/27 01:22:47;;;;;;;1052.18;983.63;;;;;;;12.87;46.29;101533.88;686098;28;46368;-66
2022/04/27 01:23:09;;;;;;;1058.97;990.10;;;;;;;12.89;46.46;101534.53;685370;28;46101;-66
2022/04/27 01:23:30;;;;;;;1059.70;990.88;;;;;;;12.89;46.69;101536.41;685269;28;45998;-67
2022/04/27 01:23:53;;;;;;;1056.35;987.70;;;;;;;12.89;46.36;101539.13;684157;28;45239;-67
2022/04/27 01:24:17;;;;;;;1062.72;993.75;;;;;;;12.89;46.50;101539.13;683923;28;44321;-67
2022/04/27 01:24:38;;;;;;;1065.20;996.15;;;;;;;12.87;46.31;101536.59;685324;28;91993;-66
2022/04/27 01:24:59;;;;;;;1050.63;982.10;;;;;;;12.87;46.84;101547.44;687518;28;22369;-67
2022/04/27 01:25:22;;;;;;;1041.97;973.92;;;;;;;12.87;46.73;101543.84;685857;28;46390;-66
2022/04/27 01:25:48;;;;;;;1053.75;985.33;;;;;;;12.87;46.80;101543.84;686167;28;44586;-66
2022/04/27 01:26:09;;;;;;;1056.60;988.03;;;;;;;12.85;46.63;101535.88;684269;28;138645;-66
2022/04/27 01:26:33;;;;;;;1058.47;989.75;;;;;;;12.84;46.67;101533.38;685355;28;44352;-66
2022/04/27 01:26:54;;;;;;;1059.75;990.85;;;;;;;12.84;46.70;101541.50;686827;28;69459;-66
2022/04/27 01:27:15;;;;;;;1050.38;981.78;;;;;;;12.82;46.85;101538.97;690580;28;22419;-66
2022/04/27 01:27:42;;;;;;;1042.82;974.65;;;;;;;12.82;46.98;101538.97;687697;28;46203;-66
2022/04/27 01:28:04;;;;;;;979.40;914.33;;;;;;;12.79;46.93;101544.72;680531;28;159366;-66
2022/04/27 01:28:27;;;;;;;988.08;922.83;;;;;;;12.78;46.69;101546.56;685103;28;46565;-66
2022/04/27 01:28:49;;;;;;;994.50;928.92;;;;;;;12.78;46.87;101541.16;681125;28;67226;-66
2022/04/27 01:29:14;;;;;;;996.75;930.95;;;;;;;12.77;47.06;101544.03;681212;28;46324;-66
2022/04/27 01:29:35;;;;;;;984.95;919.55;;;;;;;12.75;46.86;101543.38;682665;28;115115;-66
2022/04/27 01:29:57;;;;;;;990.15;924.55;;;;;;;12.74;46.92;101549.81;684893;28;21435;-66
2022/04/27 01:30:19;;;;;;;988.75;923.30;;;;;;;12.74;46.95;101542.53;683323;28;44421;-66
2022/04/27 01:30:40;;;;;;;997.55;931.75;;;;;;;12.72;47.19;101547.25;684511;28;69736;-66
2022/04/27 01:31:03;;;;;;;989.33;923.85;;;;;;;12.72;47.21;101547.25;686230;28;21535;-66
2022/04/27 01:31:25;;;;;;;1002.63;936.60;;;;;;;12.71;47.12;101551.00;682232;28;46304;-66
2022/04/27 01:31:46;;;;;;;1004.33;938.25;;;;;;;12.70;47.30;101549.31;685594;28;69703;-66
2022/04/27 01:32:08;;;;;;;1003.92;937.80;;;;;;;12.70;47.08;101549.31;690205;28;22243;-66
2022/04/27 01:32:29;;;;;;;995.45;929.67;;;;;;;12.71;47.43;101556.44;690912;28;21522;-66
2022/04/27 01:32:51;;;;;;;998.83;932.95;;;;;;;12.72;47.18;101554.56;690894;28;22399;-66
2022/04/27 01:33:12;;;;;;;1000.72;934.78;;;;;;;12.70;46.98;101551.19;689200;28;45226;-67
2022/04/27 01:33:34;;;;;;;985.08;919.78;;;;;;;12.70;47.04;101548.47;690410;28;44329;-67
2022/04/27 01:33:55;;;;;;;989.80;924.35;;;;;;;12.71;47.03;101555.56;687216;28;44392;-66
2022/04/27 01:34:19;;;;;;;991.97;926.40;;;;;;;12.70;46.94;101554.72;687098;28;67483;-66
2022/04/27 01:34:40;;;;;;;991.95;926.28;;;;;;;12.71;47.29;101556.44;687575;28;46169;-66
2022/04/27 01:35:02;;;;;;;996.08;930.42;;;;;;;12.71;47.09;101556.44;687280;28;22355;-66
2022/04/27 01:35:23;;;;;;;988.13;922.70;;;;;;;12.69;47.21;101558.44;685154;28;45254;-66
2022/04/27 01:35:46;;;;;;;989.42;923.95;;;;;;;12.67;47.28;101555.06;687506;28;23511;-66
2022/04/27 01:36:09;;;;;;;981.75;916.55;;;;;;;12.65;47.32;101551.69;683486;28;90312;-66
2022/04/27 01:36:30;;;;;;;990.58;925.08;;;;;;;12.65;47.19;101561.66;683294;28;45258;-66
2022/04/27 01:36:54;;;;;;;990.55;924.95;;;;;;;12.65;47.55;101559.81;684355;28;21620;-67
2022/04/27 01:38:00;;;;;;;987.25;921.85;;;;;;;12.60;47.41;101556.75;684676;28;137546;-66
2022/04/27 01:38:22;;;;;;;990.70;924.95;;;;;;;12.57;47.48;101557.97;682177;28;138932;-66
2022/04/27 01:38:44;;;;;;;992.53;926.95;;;;;;;12.57;47.71;101554.38;688211;28;22404;-66
2022/04/27 01:39:06;;;;;;;990.15;924.65;;;;;;;12.55;47.43;101553.72;686325;28;47500;-67
2022/04/27 01:39:27;;;;;;;989.60;924.17;;;;;;;12.56;47.33;101563.56;685662;28;45344;-67
2022/04/27 01:39:48;;;;;;;1000.85;934.80;;;;;;;12.55;47.40;101559.97;683134;28;23458;-66